This is the latest recevied weather packets stored in our database for station/object K1FSY-9. If no packets are shown the sender has not sent any weather packets the latest 1 day(s).
| Time | Temp. | Humidity | Pressure | Rain* | Wind** | Luminosity | Snow |
|---|---|---|---|---|---|---|---|
| 1778053306 | 13.33° C | 85% | 1007.4 hPa | 0 mm | 0.45 m/s, 228° | - | - |
| 1778051505 | 13.89° C | 84% | 1007.4 hPa | 0 mm | 0.89 m/s, 240° | - | - |
| 1778049703 | 13.89° C | 81% | 1007.4 hPa | 0 mm | 0.45 m/s, 238° | - | - |
| 1778047904 | 14.44° C | 79% | 1006.7 hPa | 0 mm | 0.89 m/s, 233° | - | - |
| 1778046098 | 15° C | 77% | 1007.1 hPa | 0 mm | 0.45 m/s, 245° | - | - |
| 1778040687 | 15.56° C | 74% | 1007.4 hPa | 0 mm | 0.89 m/s, 221° | - | - |
| 1778038884 | 15.56° C | 74% | 1007.4 hPa | 0 mm | 0.45 m/s, 255° | - | - |
| 1778037084 | 15.56° C | 73% | 1007.4 hPa | 0 mm | 0.45 m/s, 234° | - | - |
| 1778035280 | 16.11° C | 71% | 1007.4 hPa | 0 mm | 0.89 m/s, 220° | - | - |
| 1778033480 | 16.67° C | 68% | 1007.4 hPa | 0 mm | 0.89 m/s, 215° | - | - |
| 1778028064 | 17.78° C | 65% | 1006 hPa | 0 mm | 0.89 m/s, 221° | - | - |
| 1778026261 | 18.33° C | 63% | 1005.4 hPa | 0 mm | 0.89 m/s, 208° | - | - |
| 1778024460 | 18.89° C | 62% | 1005.4 hPa | 0 mm | 0.89 m/s, 212° | - | - |
| 1778022660 | 20° C | 58% | 1004.7 hPa | 0 mm | 0.89 m/s, 212° | - | - |
| 1778020859 | 21.11° C | 55% | 1004 hPa | 0 mm | 1.34 m/s, 216° | - | - |
| 1778017254 | 23.33° C | 51% | 1004 hPa | 0 mm | 0.89 m/s, 223° | - | - |
| 1778015449 | 23.89° C | 48% | 1003.3 hPa | 0 mm | 0.89 m/s, 192° | - | - |
| 1778013644 | 25° C | 47% | 1003.3 hPa | 0 mm | 1.34 m/s, 185° | - | - |
| 1778011839 | 26.11° C | 44% | 1003 hPa | 0 mm | 1.34 m/s, 179° | - | - |
| 1778010036 | 27.22° C | 42% | 1003 hPa | 0 mm | 1.34 m/s, 201° | - | - |
| 1778008235 | 27.22° C | 42% | 1002.7 hPa | 0 mm | 1.34 m/s, 213° | - | - |
| 1778002824 | 26.67° C | 47% | 1003.7 hPa | 0 mm | 1.34 m/s, 192° | - | - |
| 1778001022 | 26.11° C | 46% | 1004.4 hPa | 0 mm | 1.34 m/s, 187° | - | - |
| 1777999235 | 25.56° C | 46% | 1004.7 hPa | 0 mm | 1.34 m/s, 204° | - | - |
| 1777997416 | 25.56° C | 47% | 1005.4 hPa | 0 mm | 0.89 m/s, 206° | - | - |
* Rain latest 24 hours (hover to see other rain measurements)
** Current wind speed in m/s (hover to see current wind gust speed)